PDT,Max TemperatureF,Mean TemperatureF,Min TemperatureF,Max Dew PointF,MeanDew PointF,Min DewpointF,Max Humidity, Mean Humidity, Min Humidity, Max Sea Level PressureIn, Mean Sea Level PressureIn, Min Sea Level PressureIn, Max VisibilityMiles, Mean VisibilityMiles, Min VisibilityMiles, Max Wind SpeedMPH, Mean Wind SpeedMPH, Max Gust SpeedMPH,PrecipitationIn, CloudCover, Events, WindDirDegrees
2013-6-1,78,68,62,42,31,20,38,25,17,29.89,29.83,29.75,10,10,10,9,6,16,0.00,0,,78
2013-6-2,75,70,64,40,36,33,35,30,24,29.74,29.69,29.66,10,10,10,12,3,17,0.00,0,,151
2013-6-3,80,70,62,46,39,32,47,33,22,29.76,29.71,29.66,10,10,10,10,5,17,0.00,0,,44
2013-6-4,78,71,64,54,42,27,70,36,22,29.83,29.78,29.71,10,10,10,9,4,,0.00,0,,336
2013-6-5,80,74,69,57,42,28,63,33,22,29.89,29.83,29.80,10,10,10,8,4,,0.00,0,,322
2013-6-6,82,75,68,56,42,32,53,30,21,29.84,29.80,29.78,10,10,10,8,4,16,0.00,0,,318
2013-6-7,88,82,75,49,31,20,37,19,10,29.81,29.77,29.73,10,10,8,8,5,,0.00,0,,13
2013-6-8,91,80,73,55,47,39,42,31,18,29.73,29.70,29.68,10,10,10,9,6,18,0.00,0,,28
2013-6-9,84,74,66,59,48,32,66,40,19,29.73,29.68,29.64,10,10,10,9,4,,0.00,0,,131
2013-6-10,66,58,52,53,47,33,86,68,33,29.93,29.80,29.68,10,10,10,9,4,,0.00,3,Rain,159
2013-6-11,66,60,53,47,42,34,69,52,40,29.96,29.92,29.89,10,10,10,17,8,31,0.00,0,,164
2013-6-12,68,59,52,44,37,28,64,45,23,29.93,29.89,29.86,10,10,10,17,9,26,0.00,0,,174
2013-6-13,64,56,50,34,28,19,46,33,26,30.04,29.99,29.90,10,10,10,13,4,20,0.00,0,,146
2013-6-14,70,61,52,41,32,24,49,35,24,29.98,29.89,29.82,10,10,10,12,6,21,0.00,0,,42
2013-6-15,70,63,57,39,30,24,48,31,19,29.93,29.85,29.78,10,10,10,10,4,17,0.00,0,,197
2013-6-16,71,64,57,37,31,27,35,30,25,30.02,29.98,29.91,10,10,10,9,3,,0.00,0,,207
2013-6-17,69,61,52,43,36,31,71,40,25,30.00,29.98,29.94,10,10,10,12,4,20,0.00,0,,177
2013-6-18,60,50,43,42,34,22,89,52,26,29.91,29.89,29.87,10,10,10,16,8,24,0.00,0,,167
2013-6-19,57,47,39,39,33,28,93,58,38,30.42,30.10,29.89,10,10,10,10,4,17,0.00,2,,209
2013-6-20,63,54,46,36,28,19,52,36,29,30.42,30.18,29.92,10,10,10,12,4,,0.00,0,,345
2013-6-21,68,58,50,39,32,25,49,38,22,30.42,30.11,29.91,10,10,10,9,5,,0.00,0,,345
2013-6-22,72,63,55,39,34,28,49,33,25,29.91,29.86,29.80,10,10,10,12,5,,0.00,0,,181
2013-6-23,62,56,51,50,43,31,96,66,32,29.96,29.81,29.72,10,10,9,14,4,20,0.01,5,Rain,169
2013-6-24,51,48,46,50,47,45,100,99,88,30.42,30.19,29.73,10,1,0,15,10,23,130.32,8,Fog-Rain,166
2013-6-25,55,50,46,55,51,46,100,99,93,30.42,30.22,29.91,1,0,0,18,12,25,190.00,,Fog-Rain,174
2013-6-26,69,62,55,57,55,54,100,87,63,30.42,30.25,29.99,10,6,0,15,7,18,0.00,5,Fog,164
2013-6-27,79,69,60,58,53,45,75,56,34,30.42,30.24,30.03,10,10,10,8,4,,0.00,0,,141
2013-6-28,82,75,69,56,48,39,53,37,30,30.42,30.18,29.90,10,10,10,7,5,,0.00,0,,330
2013-6-29,84,76,69,52,48,42,53,36,24,30.42,30.14,29.82,10,10,10,9,4,,0.00,0,,328
2013-6-30,84,78,73,52,49,43,43,35,28,30.41,30.10,29.76,10,10,10,10,4,,0.00,0,,136